Time;durP1;ratioP1;P1;durP2;ratioP2;P2;SDS_P1;SDS_P2;PMS_P1;PMS_P2;Temp;Humidity;BMP_temperature;BMP_pressure;BME280_temperature;BME280_humidity;BME280_pressure;Samples;Min_cycle;Max_cycle;Signal;HPM_P1;HPM_P2
2023/09/08 00:01:05;;;;;;;9.32;2.80;;;41.00;45.20;;;;;;5012771;28;20078;-66
2023/09/08 00:03:32;;;;;;;10.15;2.55;;;40.90;45.50;;;;;;5029739;28;20028;-63
2023/09/08 00:05:58;;;;;;;13.18;3.00;;;40.90;45.50;;;;;;5011680;28;20588;-61
2023/09/08 00:08:24;;;;;;;14.35;2.47;;;40.80;45.10;;;;;;5010266;28;20025;-65
2023/09/08 00:10:51;;;;;;;15.50;3.40;;;40.80;45.00;;;;;;5010433;28;20021;-66
2023/09/08 00:13:17;;;;;;;22.38;7.15;;;40.70;45.30;;;;;;5012268;28;20033;-66
2023/09/08 00:15:44;;;;;;;13.43;2.78;;;40.70;45.40;;;;;;5015836;28;20473;-65
2023/09/08 00:18:11;;;;;;;8.93;3.70;;;40.60;44.20;;;;;;5012155;28;20482;-65
2023/09/08 00:20:39;;;;;;;11.10;3.85;;;40.60;44.50;;;;;;5012260;28;20041;-66
2023/09/08 00:23:05;;;;;;;16.83;3.17;;;40.60;45.60;;;;;;5016551;28;20473;-64
2023/09/08 00:25:32;;;;;;;16.10;4.05;;;40.50;45.60;;;;;;5011583;28;20025;-64
2023/09/08 00:27:59;;;;;;;15.60;5.40;;;40.30;45.70;;;;;;5008287;28;20010;-65
2023/09/08 00:30:25;;;;;;;14.18;4.97;;;40.40;46.10;;;;;;5013060;28;20033;-63
2023/09/08 00:32:52;;;;;;;13.95;2.78;;;40.30;45.40;;;;;;5012933;28;20022;-65
2023/09/08 00:35:18;;;;;;;21.38;7.53;;;40.30;45.60;;;;;;5015422;28;20026;-65
2023/09/08 00:37:45;;;;;;;9.75;4.05;;;40.20;46.00;;;;;;5016483;28;20018;-64
2023/09/08 00:40:11;;;;;;;14.52;3.38;;;40.10;46.30;;;;;;5015679;28;20030;-63
2023/09/08 00:42:38;;;;;;;14.60;4.78;;;40.10;46.20;;;;;;5015489;28;20064;-67
2023/09/08 00:45:04;;;;;;;16.40;7.15;;;40.00;46.20;;;;;;5012021;28;20415;-63
2023/09/08 00:47:31;;;;;;;7.65;3.42;;;40.00;46.10;;;;;;5013904;28;20101;-64
2023/09/08 00:49:58;;;;;;;8.13;2.65;;;39.90;46.40;;;;;;5009683;28;20021;-64
2023/09/08 00:52:24;;;;;;;7.32;2.70;;;39.80;45.70;;;;;;5025094;28;20029;-64
2023/09/08 00:54:51;;;;;;;14.88;4.50;;;39.80;46.30;;;;;;5008694;28;20036;-64
2023/09/08 00:57:17;;;;;;;16.20;3.42;;;39.70;46.10;;;;;;5007693;28;20498;-66
2023/09/08 00:59:44;;;;;;;23.90;7.32;;;39.60;46.00;;;;;;5013930;28;20038;-66
2023/09/08 01:02:11;;;;;;;20.80;8.50;;;39.60;46.10;;;;;;5015971;28;20013;-70
2023/09/08 01:04:40;;;;;;;17.75;3.20;;;39.50;46.20;;;;;;5010899;28;20030;-67
2023/09/08 01:07:07;;;;;;;9.38;2.90;;;39.50;45.80;;;;;;5004260;28;20088;-66
2023/09/08 01:09:35;;;;;;;11.02;3.10;;;39.50;46.10;;;;;;5010051;28;20105;-67
2023/09/08 01:12:05;;;;;;;8.25;4.15;;;39.40;46.50;;;;;;5007887;28;20014;-67
2023/09/08 01:14:31;;;;;;;17.35;3.72;;;39.30;46.20;;;;;;5007693;28;20096;-65
2023/09/08 01:16:58;;;;;;;10.15;3.03;;;39.20;46.00;;;;;;5007408;28;20105;-66
2023/09/08 01:19:25;;;;;;;9.05;3.45;;;39.10;46.00;;;;;;5007667;28;20030;-67
2023/09/08 01:22:06;;;;;;;12.43;2.80;;;39.10;45.50;;;;;;5010561;28;20029;-64
2023/09/08 01:24:51;;;;;;;11.27;2.78;;;39.00;46.30;;;;;;5007957;28;20458;-64
2023/09/08 01:27:20;;;;;;;20.95;3.72;;;39.00;46.00;;;;;;5010941;28;20072;-65
2023/09/08 01:29:49;;;;;;;19.95;3.33;;;38.90;46.00;;;;;;5010058;28;20025;-65
2023/09/08 01:32:16;;;;;;;16.58;2.60;;;38.80;46.00;;;;;;5009889;28;20386;-65
2023/09/08 01:34:43;;;;;;;11.27;2.88;;;38.80;46.20;;;;;;5012866;28;20393;-65
2023/09/08 01:37:09;;;;;;;15.07;2.80;;;38.80;46.10;;;;;;5013556;28;21783;-65
2023/09/08 01:39:35;;;;;;;14.77;3.13;;;38.70;46.80;;;;;;5013641;28;20939;-63
2023/09/08 01:42:04;;;;;;;15.80;3.33;;;38.70;46.50;;;;;;5012119;28;20049;-67
2023/09/08 01:44:30;;;;;;;19.83;2.90;;;38.60;46.90;;;;;;5008926;28;20022;-64
2023/09/08 01:46:58;;;;;;;20.77;2.90;;;38.50;46.90;;;;;;5012951;28;20029;-64
2023/09/08 01:49:24;;;;;;;19.33;3.55;;;38.50;47.00;;;;;;5013273;28;20030;-65
2023/09/08 01:51:52;;;;;;;13.50;3.03;;;38.50;47.10;;;;;;5007609;28;20156;-65
2023/09/08 01:54:18;;;;;;;23.42;2.95;;;38.40;47.40;;;;;;5007196;28;20048;-64
2023/09/08 01:56:44;;;;;;;27.52;3.40;;;38.40;47.50;;;;;;5012050;28;20029;-65
2023/09/08 01:59:11;;;;;;;18.70;2.80;;;38.30;48.50;;;;;;5005804;28;20038;-63
2023/09/08 02:01:37;;;;;;;29.98;4.65;;;38.20;48.00;;;;;;5012185;28;20053;-63
2023/09/08 02:04:04;;;;;;;28.55;3.67;;;38.10;48.20;;;;;;5015693;28;20021;-65
2023/09/08 02:06:30;;;;;;;22.33;8.90;;;38.10;48.70;;;;;;5007434;28;20010;-65
2023/09/08 02:08:56;;;;;;;22.65;8.43;;;38.00;49.80;;;;;;5007658;28;20010;-65
2023/09/08 02:11:23;;;;;;;33.80;9.63;;;38.00;50.60;;;;;;5011947;28;20010;-66
2023/09/08 02:13:49;;;;;;;21.73;7.32;;;37.90;51.70;;;;;;5012891;28;20026;-65
2023/09/08 02:16:16;;;;;;;24.70;7.68;;;37.90;52.20;;;;;;5006388;28;20466;-65
2023/09/08 02:18:44;;;;;;;24.83;3.92;;;37.80;52.50;;;;;;5007417;28;20014;-64
2023/09/08 02:21:10;;;;;;;23.75;3.15;;;37.70;52.60;;;;;;5081355;22;20457;-66
2023/09/08 02:23:37;;;;;;;22.15;3.25;;;37.70;52.40;;;;;;5011654;28;20026;-63
2023/09/08 02:26:04;;;;;;;16.70;2.50;;;37.60;52.10;;;;;;5012112;28;20017;-64
2023/09/08 02:28:31;;;;;;;14.18;3.30;;;37.50;51.90;;;;;;5011828;28;20108;-65
2023/09/08 02:30:57;;;;;;;18.45;3.00;;;37.40;52.10;;;;;;5019774;28;20098;-65
2023/09/08 02:33:23;;;;;;;26.48;4.50;;;37.40;51.50;;;;;;5014425;28;20095;-66
2023/09/08 02:35:50;;;;;;;17.35;2.63;;;37.30;51.40;;;;;;5016718;28;20166;-63
2023/09/08 02:38:16;;;;;;;11.45;2.90;;;37.10;51.50;;;;;;5016841;28;20385;-63
2023/09/08 02:40:43;;;;;;;14.43;2.88;;;37.10;51.60;;;;;;5016221;28;20042;-64
2023/09/08 02:43:10;;;;;;;21.52;3.03;;;37.10;51.60;;;;;;5015410;28;20017;-65
2023/09/08 02:45:36;;;;;;;13.15;3.10;;;37.00;51.50;;;;;;5026016;28;20465;-63
2023/09/08 02:48:03;;;;;;;13.30;2.42;;;37.00;51.80;;;;;;5031564;28;21459;-62
2023/09/08 02:50:29;;;;;;;14.80;2.67;;;36.90;51.70;;;;;;5034717;28;20025;-61
2023/09/08 02:52:56;;;;;;;17.58;3.42;;;36.80;51.80;;;;;;5028954;28;20481;-64
2023/09/08 02:55:22;;;;;;;27.20;3.08;;;36.70;52.30;;;;;;5027255;28;20103;-64
2023/09/08 02:57:49;;;;;;;20.10;2.80;;;36.60;52.40;;;;;;5030127;28;20044;-60
2023/09/08 03:00:15;;;;;;;20.85;2.60;;;36.50;53.10;;;;;;5033383;28;21945;-64
2023/09/08 03:02:42;;;;;;;21.00;3.38;;;36.50;52.40;;;;;;5025461;28;20474;-62
2023/09/08 03:05:08;;;;;;;24.95;4.03;;;36.50;52.90;;;;;;5030112;28;20013;-65
2023/09/08 03:07:37;;;;;;;33.45;3.65;;;36.40;52.80;;;;;;5025335;28;20010;-63
2023/09/08 03:10:04;;;;;;;29.52;2.97;;;36.40;53.10;;;;;;5025107;28;20017;-64
2023/09/08 03:12:31;;;;;;;22.13;2.60;;;36.30;52.60;;;;;;5026070;28;20025;-63
2023/09/08 03:14:57;;;;;;;20.38;2.67;;;36.30;52.90;;;;;;5028715;28;20025;-61
2023/09/08 03:17:23;;;;;;;18.42;2.40;;;36.20;52.50;;;;;;5029002;28;20028;-65
2023/09/08 03:19:50;;;;;;;16.42;2.22;;;36.20;52.60;;;;;;5032510;28;20140;-69
2023/09/08 03:22:16;;;;;;;21.42;3.03;;;36.20;52.80;;;;;;5028103;28;20030;-64
2023/09/08 03:24:42;;;;;;;12.73;2.15;;;36.10;52.70;;;;;;5030932;28;20017;-64
2023/09/08 03:27:09;;;;;;;17.35;5.57;;;36.10;52.70;;;;;;5029183;28;20041;-63
2023/09/08 03:29:35;;;;;;;20.70;2.85;;;36.10;52.90;;;;;;5030267;28;20072;-66
2023/09/08 03:32:02;;;;;;;22.23;3.28;;;36.10;52.90;;;;;;5030049;28;20425;-63
2023/09/08 03:34:28;;;;;;;17.60;2.78;;;35.90;52.90;;;;;;5029081;28;20022;-63
2023/09/08 03:36:55;;;;;;;16.02;2.90;;;35.90;53.10;;;;;;5033174;28;20497;-65
2023/09/08 03:39:21;;;;;;;26.13;3.80;;;35.90;53.20;;;;;;5029546;28;20032;-64
2023/09/08 03:41:47;;;;;;;35.75;4.55;;;35.90;53.20;;;;;;5028256;28;20072;-65
2023/09/08 03:44:14;;;;;;;35.17;3.85;;;35.80;53.70;;;;;;5031515;28;20009;-64
2023/09/08 03:46:40;;;;;;;16.83;3.67;;;35.70;53.50;;;;;;5034364;28;20013;-60
2023/09/08 03:49:07;;;;;;;29.48;3.92;;;35.70;53.30;;;;;;5034641;28;20017;-63
2023/09/08 03:51:33;;;;;;;20.17;3.85;;;35.60;53.30;;;;;;5029821;28;20350;-67
2023/09/08 03:54:00;;;;;;;26.10;6.45;;;35.60;53.90;;;;;;5028618;28;20082;-64
2023/09/08 03:56:27;;;;;;;27.38;6.10;;;35.60;54.00;;;;;;5034369;28;20439;-65
2023/09/08 03:58:53;;;;;;;23.27;6.38;;;35.50;54.00;;;;;;5052592;28;20056;-64
2023/09/08 04:01:19;;;;;;;31.02;7.57;;;35.40;53.60;;;;;;5032899;28;20020;-70
2023/09/08 04:03:46;;;;;;;21.05;6.95;;;35.30;53.90;;;;;;5033138;28;20018;-64
2023/09/08 04:06:12;;;;;;;26.25;6.93;;;35.20;53.90;;;;;;5032828;28;20036;-63
2023/09/08 04:08:39;;;;;;;21.75;6.60;;;35.20;54.00;;;;;;5029948;28;20010;-62
2023/09/08 04:11:05;;;;;;;34.53;5.60;;;35.10;53.90;;;;;;5031408;28;20017;-65
2023/09/08 04:13:31;;;;;;;23.73;4.43;;;35.10;54.40;;;;;;5032854;28;20025;-64
2023/09/08 04:15:58;;;;;;;19.30;5.65;;;35.00;54.30;;;;;;5031700;28;20026;-63
2023/09/08 04:18:24;;;;;;;25.15;5.45;;;35.00;54.70;;;;;;5030291;28;20009;-69
2023/09/08 04:20:51;;;;;;;12.88;3.75;;;34.90;55.30;;;;;;5031718;28;20041;-66
2023/09/08 04:23:17;;;;;;;32.00;4.03;;;34.90;55.40;;;;;;5037392;28;20017;-65
2023/09/08 04:25:43;;;;;;;33.38;5.50;;;34.80;55.60;;;;;;5028649;28;20429;-66
2023/09/08 04:28:10;;;;;;;35.35;4.60;;;34.70;56.10;;;;;;5030503;28;20021;-64
2023/09/08 04:30:36;;;;;;;15.38;3.75;;;34.60;56.80;;;;;;5027786;28;20385;-63
2023/09/08 04:33:03;;;;;;;17.13;5.07;;;34.60;56.90;;;;;;5025362;28;20087;-63
2023/09/08 04:35:29;;;;;;;18.80;5.20;;;34.60;56.40;;;;;;5026770;28;20747;-63
2023/09/08 04:37:55;;;;;;;26.73;5.80;;;34.60;56.80;;;;;;5029318;28;20457;-62
2023/09/08 04:40:22;;;;;;;26.38;5.13;;;34.50;57.00;;;;;;5027718;28;20066;-63
2023/09/08 04:42:48;;;;;;;27.10;4.63;;;34.50;57.00;;;;;;5030679;28;20043;-64
2023/09/08 04:45:15;;;;;;;32.00;4.97;;;34.50;57.20;;;;;;5030387;28;20013;-61
2023/09/08 04:47:41;;;;;;;24.23;4.35;;;34.40;57.40;;;;;;5033195;28;20013;-63
2023/09/08 04:50:08;;;;;;;14.90;3.88;;;34.30;57.50;;;;;;5028658;28;20029;-61
2023/09/08 04:52:34;;;;;;;19.23;3.60;;;34.30;57.70;;;;;;5029138;28;20482;-63
2023/09/08 04:55:01;;;;;;;22.35;4.15;;;34.20;57.90;;;;;;5027684;28;20045;-62
2023/09/08 04:57:28;;;;;;;11.15;3.25;;;34.20;58.60;;;;;;5026534;28;20005;-63
2023/09/08 04:59:55;;;;;;;14.90;2.78;;;34.20;58.70;;;;;;5030656;28;20036;-63
2023/09/08 05:02:21;;;;;;;11.63;2.90;;;34.10;59.30;;;;;;5028251;28;20462;-64
2023/09/08 05:04:47;;;;;;;16.38;2.92;;;34.00;60.00;;;;;;5028442;28;20036;-66
2023/09/08 05:07:14;;;;;;;16.23;3.17;;;34.00;60.60;;;;;;5032186;28;20045;-64
2023/09/08 05:09:40;;;;;;;12.93;3.38;;;34.00;61.30;;;;;;5033981;28;20424;-67
2023/09/08 05:12:07;;;;;;;16.90;3.53;;;33.90;62.70;;;;;;5039250;28;20017;-68
2023/09/08 05:14:34;;;;;;;17.70;3.60;;;33.80;63.60;;;;;;5031778;28;20014;-66
2023/09/08 05:17:00;;;;;;;26.10;2.85;;;33.80;65.60;;;;;;5027918;28;20478;-67
2023/09/08 05:19:27;;;;;;;18.08;2.65;;;33.70;67.00;;;;;;5025243;28;20109;-67
2023/09/08 05:21:55;;;;;;;21.88;3.05;;;33.70;69.20;;;;;;5027620;28;20041;-67
2023/09/08 05:24:21;;;;;;;27.63;2.97;;;33.50;71.10;;;;;;5027581;28;20373;-65
2023/09/08 05:26:48;;;;;;;13.45;2.95;;;33.40;72.00;;;;;;5029140;28;20097;-66
2023/09/08 05:29:14;;;;;;;15.85;3.33;;;33.40;73.20;;;;;;5034944;28;20022;-67
2023/09/08 05:31:41;;;;;;;19.77;3.67;;;33.30;74.60;;;;;;5027944;28;20021;-67
2023/09/08 05:34:08;;;;;;;6.35;2.30;;;33.30;75.50;;;;;;5027348;28;20017;-66
2023/09/08 05:36:36;;;;;;;12.02;3.15;;;33.20;76.40;;;;;;5028275;28;20084;-67
2023/09/08 05:39:03;;;;;;;11.63;2.58;;;33.20;77.40;;;;;;5030995;28;20014;-69
2023/09/08 05:41:29;;;;;;;15.18;2.70;;;33.10;78.00;;;;;;5034021;28;20556;-66
2023/09/08 05:43:56;;;;;;;10.90;2.35;;;33.00;78.70;;;;;;5042460;28;20021;-69
2023/09/08 05:46:22;;;;;;;10.30;2.00;;;33.00;79.10;;;;;;5028182;28;20025;-66
2023/09/08 05:48:49;;;;;;;10.20;2.42;;;33.00;79.50;;;;;;5033013;28;20450;-67
2023/09/08 05:51:17;;;;;;;15.65;2.20;;;33.00;79.90;;;;;;5027934;28;20029;-66
2023/09/08 05:53:43;;;;;;;9.00;2.65;;;32.90;80.40;;;;;;5029598;28;20028;-66
2023/09/08 05:56:10;;;;;;;15.23;2.50;;;32.80;80.90;;;;;;5033495;28;20040;-67
2023/09/08 05:58:37;;;;;;;11.90;2.55;;;32.90;81.10;;;;;;5027469;28;20064;-67
2023/09/08 06:01:04;;;;;;;13.25;2.40;;;32.90;81.50;;;;;;5027642;28;20879;-66
2023/09/08 06:03:31;;;;;;;12.52;3.40;;;32.80;81.80;;;;;;5038646;28;20134;-63
2023/09/08 06:05:57;;;;;;;9.00;3.03;;;32.70;82.60;;;;;;5041561;28;20382;-64
2023/09/08 06:08:24;;;;;;;11.65;3.50;;;32.70;82.80;;;;;;5028470;28;20462;-65
2023/09/08 06:10:51;;;;;;;12.27;3.80;;;32.70;83.20;;;;;;5027234;28;20021;-64
2023/09/08 06:13:17;;;;;;;13.93;2.90;;;32.60;83.50;;;;;;5034567;28;20016;-63
2023/09/08 06:15:43;;;;;;;19.15;3.05;;;32.50;83.90;;;;;;5027586;28;20016;-66
2023/09/08 06:18:11;;;;;;;18.55;2.97;;;32.50;84.20;;;;;;5032966;28;20023;-66
2023/09/08 06:20:37;;;;;;;23.02;3.70;;;32.50;84.10;;;;;;5046506;28;20043;-67
2023/09/08 06:23:04;;;;;;;36.92;3.67;;;32.50;84.20;;;;;;5027900;28;20021;-65
2023/09/08 06:25:30;;;;;;;26.42;3.72;;;32.50;84.40;;;;;;5026169;28;20036;-63
2023/09/08 06:27:56;;;;;;;20.05;3.53;;;32.50;84.30;;;;;;5023874;28;20021;-64
2023/09/08 06:30:23;;;;;;;19.90;4.25;;;32.50;84.10;;;;;;5026494;28;20096;-65
2023/09/08 06:32:49;;;;;;;29.02;4.53;;;32.50;84.20;;;;;;5031209;28;20022;-66
2023/09/08 06:35:16;;;;;;;20.15;3.65;;;32.50;84.20;;;;;;5021532;28;20170;-64
2023/09/08 06:37:42;;;;;;;29.30;3.95;;;32.50;84.20;;;;;;5023522;28;20416;-65
2023/09/08 06:40:09;;;;;;;23.45;4.47;;;32.50;84.20;;;;;;5023440;28;20433;-66
2023/09/08 06:42:36;;;;;;;23.85;4.55;;;32.40;84.20;;;;;;5023174;28;20040;-65
2023/09/08 06:45:02;;;;;;;24.00;4.82;;;32.50;84.40;;;;;;5025569;28;20064;-66
2023/09/08 06:47:28;;;;;;;18.10;4.95;;;32.50;84.30;;;;;;5025914;28;20026;-66
2023/09/08 06:49:55;;;;;;;13.45;4.07;;;32.40;84.80;;;;;;5023442;28;20018;-65
2023/09/08 06:52:21;;;;;;;14.32;3.75;;;32.40;84.90;;;;;;5030309;28;20013;-64
2023/09/08 06:54:48;;;;;;;14.57;4.28;;;32.30;84.70;;;;;;5027816;28;20104;-67
2023/09/08 06:57:18;;;;;;;18.88;4.10;;;32.30;85.20;;;;;;5031251;28;20529;-64
2023/09/08 06:59:44;;;;;;;12.63;3.20;;;32.30;85.00;;;;;;5032272;28;20060;-66
2023/09/08 07:02:10;;;;;;;10.95;2.85;;;32.20;85.50;;;;;;5032142;28;20096;-64
2023/09/08 07:04:37;;;;;;;12.20;2.42;;;32.20;85.30;;;;;;5031890;28;20014;-66
2023/09/08 07:07:06;;;;;;;7.60;2.22;;;32.10;85.50;;;;;;5033310;28;20033;-65
2023/09/08 07:09:37;;;;;;;11.73;2.50;;;32.10;86.10;;;;;;5031365;28;20104;-66
2023/09/08 07:12:06;;;;;;;7.47;1.70;;;32.10;85.80;;;;;;5030456;28;20021;-64
2023/09/08 07:14:33;;;;;;;7.85;2.10;;;32.10;86.10;;;;;;5032898;28;20129;-61
2023/09/08 07:16:59;;;;;;;6.10;2.30;;;32.10;86.30;;;;;;5032519;28;20091;-65
2023/09/08 07:19:27;;;;;;;10.25;2.70;;;32.10;86.50;;;;;;5030991;28;20108;-64
2023/09/08 07:21:53;;;;;;;9.07;2.72;;;32.10;86.30;;;;;;5026512;28;20045;-64
2023/09/08 07:24:20;;;;;;;10.52;2.97;;;32.00;86.80;;;;;;5032934;28;20013;-63
2023/09/08 07:26:46;;;;;;;13.77;3.20;;;32.00;87.00;;;;;;5032083;28;20013;-64
2023/09/08 07:29:13;;;;;;;13.77;2.95;;;32.00;87.00;;;;;;5031848;28;20117;-64
2023/09/08 07:31:40;;;;;;;13.25;3.67;;;31.90;87.40;;;;;;5033626;28;20017;-67
2023/09/08 07:34:06;;;;;;;9.73;3.25;;;31.90;87.10;;;;;;5031942;28;20052;-64
2023/09/08 07:36:32;;;;;;;12.65;4.20;;;31.90;87.40;;;;;;5028208;28;20033;-64
2023/09/08 07:38:59;;;;;;;10.07;3.67;;;31.90;87.80;;;;;;5031452;28;20016;-64
2023/09/08 07:41:25;;;;;;;10.65;3.95;;;31.90;87.90;;;;;;5034219;28;20519;-66
2023/09/08 07:43:52;;;;;;;10.43;4.07;;;31.80;88.70;;;;;;5027780;28;20155;-62
2023/09/08 07:46:18;;;;;;;13.10;4.00;;;31.80;88.50;;;;;;5031340;28;20596;-66
2023/09/08 07:48:44;;;;;;;11.40;4.15;;;31.80;88.50;;;;;;5032033;28;20023;-68
2023/09/08 07:51:11;;;;;;;16.92;3.97;;;31.80;88.70;;;;;;5029679;28;20017;-66
2023/09/08 07:53:37;;;;;;;13.45;3.20;;;31.70;88.60;;;;;;5027729;28;20029;-67
2023/09/08 07:56:04;;;;;;;11.50;3.30;;;31.70;88.80;;;;;;5028433;28;20018;-67
2023/09/08 07:58:32;;;;;;;16.50;3.90;;;31.70;89.30;;;;;;5026585;28;20021;-65
2023/09/08 08:00:58;;;;;;;16.00;4.63;;;31.70;89.70;;;;;;5027646;28;20033;-66
2023/09/08 08:03:25;;;;;;;20.15;4.13;;;31.70;90.00;;;;;;5028472;28;20096;-66
2023/09/08 08:05:51;;;;;;;11.65;8.90;;;31.70;90.10;;;;;;5026634;28;20041;-65
2023/09/08 08:08:17;;;;;;;24.42;9.45;;;31.70;90.20;;;;;;5023594;28;20484;-65
2023/09/08 08:10:44;;;;;;;18.05;8.52;;;31.60;90.30;;;;;;5025172;28;20017;-65
2023/09/08 08:13:10;;;;;;;14.73;7.78;;;31.60;90.40;;;;;;5026853;28;20022;-65
2023/09/08 08:15:38;;;;;;;15.52;8.05;;;31.60;90.70;;;;;;5044099;28;20025;-66
2023/09/08 08:18:09;;;;;;;18.55;6.25;;;31.60;90.80;;;;;;5031783;28;20017;-63
2023/09/08 08:20:36;;;;;;;9.38;2.65;;;31.60;91.20;;;;;;5034365;28;20515;-64
2023/09/08 08:23:03;;;;;;;7.45;2.65;;;31.50;91.50;;;;;;5032372;28;20169;-64
2023/09/08 08:25:31;;;;;;;11.90;2.95;;;31.50;91.90;;;;;;5033222;28;20013;-62
2023/09/08 08:27:58;;;;;;;9.82;2.80;;;31.30;92.10;;;;;;5033701;28;20020;-63
2023/09/08 08:30:25;;;;;;;10.40;3.30;;;31.20;92.50;;;;;;5028023;28;20025;-63
2023/09/08 08:32:53;;;;;;;10.27;2.90;;;31.20;92.70;;;;;;5028169;28;20018;-62
2023/09/08 08:35:22;;;;;;;12.05;3.50;;;31.20;93.00;;;;;;5029624;28;20092;-66
2023/09/08 08:37:48;;;;;;;10.43;3.45;;;31.20;93.30;;;;;;5031445;28;20030;-65
2023/09/08 08:40:15;;;;;;;9.68;3.50;;;31.10;93.40;;;;;;5028103;28;20033;-64
2023/09/08 08:42:44;;;;;;;10.43;3.53;;;31.10;93.80;;;;;;5030957;28;20009;-64
2023/09/08 08:45:14;;;;;;;8.82;3.20;;;31.00;94.10;;;;;;5029205;28;20021;-64
2023/09/08 08:47:43;;;;;;;10.43;3.08;;;30.90;94.50;;;;;;5025114;28;20025;-65
2023/09/08 08:50:10;;;;;;;6.38;2.60;;;30.80;94.70;;;;;;5027190;28;20010;-64
2023/09/08 08:52:39;;;;;;;8.32;3.70;;;30.70;94.80;;;;;;5029259;28;20021;-66
2023/09/08 08:55:06;;;;;;;10.25;3.40;;;30.70;95.00;;;;;;5031561;28;20029;-64
2023/09/08 08:57:33;;;;;;;11.90;3.65;;;30.80;95.20;;;;;;5030919;28;20059;-68
2023/09/08 09:00:00;;;;;;;28.83;5.72;;;30.70;95.50;;;;;;5029542;28;20025;-62
2023/09/08 09:02:29;;;;;;;12.10;4.05;;;30.60;96.20;;;;;;5031980;28;20021;-61
2023/09/08 09:04:56;;;;;;;10.82;3.80;;;30.60;96.20;;;;;;5030323;28;20053;-62
2023/09/08 09:07:23;;;;;;;11.95;3.80;;;30.60;96.60;;;;;;5029322;28;20043;-61
2023/09/08 09:09:50;;;;;;;14.85;3.75;;;30.50;97.10;;;;;;5026462;28;20038;-61
2023/09/08 09:12:17;;;;;;;12.55;3.63;;;30.50;97.30;;;;;;5027207;28;20021;-62
2023/09/08 09:14:49;;;;;;;9.35;3.50;;;30.50;97.70;;;;;;5024710;28;20048;-63
2023/09/08 09:17:16;;;;;;;10.68;3.58;;;30.30;98.10;;;;;;5028829;28;20472;-63
2023/09/08 09:19:42;;;;;;;9.68;4.03;;;30.30;98.80;;;;;;5027498;28;20047;-62
2023/09/08 09:22:08;;;;;;;10.68;3.63;;;30.30;99.40;;;;;;5027481;28;20033;-62
2023/09/08 09:24:46;;;;;;;12.82;3.67;;;30.30;99.30;;;;;;5028843;28;20028;-62
2023/09/08 09:27:13;;;;;;;11.15;4.00;;;30.30;99.60;;;;;;5027059;28;20204;-61
2023/09/08 09:29:47;;;;;;;16.75;4.13;;;30.40;99.80;;;;;;5043023;28;20021;-61
2023/09/08 09:32:15;;;;;;;14.45;4.13;;;30.40;99.90;;;;;;5025922;28;20021;-61
2023/09/08 09:34:53;;;;;;;14.55;3.95;;;30.40;99.90;;;;;;5025543;28;20028;-63
2023/09/08 09:37:20;;;;;;;13.52;3.45;;;30.40;99.90;;;;;;5028502;28;20403;-62
2023/09/08 09:39:54;;;;;;;13.85;3.72;;;30.40;99.90;;;;;;5030231;28;20362;-60
2023/09/08 09:42:21;;;;;;;9.60;3.90;;;30.40;99.90;;;;;;5031956;28;20013;-62
2023/09/08 09:44:49;;;;;;;12.93;4.22;;;30.40;99.90;;;;;;5032011;28;20017;-62
2023/09/08 09:47:16;;;;;;;15.77;5.03;;;30.40;99.90;;;;;;5026114;28;20017;-62
2023/09/08 09:49:44;;;;;;;12.32;4.22;;;30.30;99.90;;;;;;5021260;28;20159;-61
2023/09/08 09:52:16;;;;;;;13.90;4.35;;;30.30;99.90;;;;;;5027908;28;20022;-61
2023/09/08 09:54:43;;;;;;;12.88;4.20;;;30.30;99.90;;;;;;5024748;28;21479;-61
2023/09/08 09:57:15;;;;;;;9.00;3.58;;;30.30;99.90;;;;;;5027254;28;20474;-60
2023/09/08 09:59:42;;;;;;;13.18;4.93;;;30.60;99.90;;;;;;5029266;28;20059;-61
2023/09/08 10:02:12;;;;;;;10.93;3.97;;;30.60;99.90;;;;;;5027239;28;20722;-60
2023/09/08 10:04:43;;;;;;;18.65;3.83;;;30.60;99.90;;;;;;5027859;28;20427;-60
2023/09/08 10:07:09;;;;;;;13.30;3.42;;;30.50;99.90;;;;;;5026177;28;20014;-60
2023/09/08 10:09:39;;;;;;;12.93;3.80;;;30.50;99.90;;;;;;5028735;28;20112;-60
2023/09/08 10:12:06;;;;;;;7.43;2.92;;;30.60;99.90;;;;;;5026585;28;20377;-62
2023/09/08 10:14:35;;;;;;;11.77;3.83;;;30.70;99.90;;;;;;5029682;28;20036;-61
2023/09/08 10:17:02;;;;;;;9.38;3.25;;;30.60;99.90;;;;;;5045106;28;20021;-61
2023/09/08 10:19:30;;;;;;;12.52;3.53;;;30.70;99.90;;;;;;5027136;28;20116;-61
2023/09/08 10:22:03;;;;;;;10.40;3.00;;;30.80;99.90;;;;;;5026563;28;20034;-61
2023/09/08 10:24:34;;;;;;;9.93;3.38;;;30.80;99.90;;;;;;5026004;28;20651;-60
2023/09/08 10:27:13;;;;;;;12.65;3.50;;;30.80;99.90;;;;;;5032128;28;20021;-61
2023/09/08 10:29:40;;;;;;;12.75;4.07;;;30.80;99.90;;;;;;5027919;28;20409;-62
2023/09/08 10:32:08;;;;;;;10.10;3.78;;;30.70;99.90;;;;;;5026207;28;20021;-63
2023/09/08 10:34:36;;;;;;;12.05;3.63;;;30.70;99.90;;;;;;5026626;28;20024;-60
2023/09/08 10:37:03;;;;;;;16.58;4.05;;;30.60;99.90;;;;;;5028950;28;20037;-60
2023/09/08 10:39:41;;;;;;;15.80;3.75;;;30.60;99.90;;;;;;5029365;28;20116;-61
2023/09/08 10:42:17;;;;;;;9.98;3.80;;;30.50;99.90;;;;;;5032119;28;20013;-65
2023/09/08 10:44:49;;;;;;;23.38;4.10;;;30.50;99.90;;;;;;5027208;28;20078;-60
2023/09/08 10:47:30;;;;;;;24.73;5.25;;;30.50;99.90;;;;;;5025887;28;20009;-61
2023/09/08 10:49:58;;;;;;;19.70;5.45;;;30.50;99.90;;;;;;5020903;28;20029;-61
2023/09/08 10:52:25;;;;;;;14.30;5.30;;;30.60;99.90;;;;;;5025545;28;20152;-62
2023/09/08 10:54:53;;;;;;;22.08;5.55;;;30.60;99.90;;;;;;5026139;28;20482;-61
2023/09/08 10:57:24;;;;;;;23.05;5.88;;;30.60;99.90;;;;;;5024412;28;20091;-61
2023/09/08 11:00:04;;;;;;;15.65;6.25;;;30.50;99.90;;;;;;5028004;28;20096;-61
2023/09/08 11:02:41;;;;;;;24.17;6.80;;;30.40;99.90;;;;;;5027291;28;20022;-61
2023/09/08 11:05:15;;;;;;;24.02;6.43;;;30.30;99.90;;;;;;5025835;28;20048;-59
2023/09/08 11:07:43;;;;;;;19.45;5.80;;;30.30;99.90;;;;;;5027360;28;20021;-60
2023/09/08 11:10:11;;;;;;;22.25;6.25;;;30.30;99.90;;;;;;5026018;28;20067;-59
2023/09/08 11:12:37;;;;;;;22.58;6.63;;;30.30;99.90;;;;;;5030339;28;20100;-60
2023/09/08 11:15:08;;;;;;;25.67;7.03;;;30.40;99.90;;;;;;5030199;28;20021;-60
2023/09/08 11:17:39;;;;;;;18.45;6.82;;;30.30;99.90;;;;;;5027527;28;20022;-60
2023/09/08 11:20:10;;;;;;;22.08;7.78;;;30.30;99.90;;;;;;5027237;28;20032;-59
2023/09/08 11:22:38;;;;;;;16.90;8.05;;;30.30;99.90;;;;;;5025673;28;20101;-60
2023/09/08 11:25:08;;;;;;;21.90;8.73;;;30.20;99.90;;;;;;5026209;28;20474;-63
2023/09/08 11:27:34;;;;;;;22.45;8.73;;;30.10;99.90;;;;;;5024330;28;20100;-60
2023/09/08 11:30:01;;;;;;;20.42;8.13;;;30.20;99.90;;;;;;5029749;28;20537;-61
2023/09/08 11:32:35;;;;;;;19.23;7.97;;;30.20;99.90;;;;;;5029349;28;20523;-60
2023/09/08 11:35:09;;;;;;;17.83;6.90;;;30.20;99.90;;;;;;5025598;28;20381;-62
2023/09/08 11:37:41;;;;;;;22.45;7.97;;;30.20;99.90;;;;;;5028645;28;20014;-61
2023/09/08 11:40:13;;;;;;;15.60;6.13;;;30.20;99.90;;;;;;5031896;28;20129;-60
2023/09/08 11:42:44;;;;;;;15.45;6.50;;;30.20;99.90;;;;;;5031960;28;20072;-60
2023/09/08 11:45:12;;;;;;;20.05;5.88;;;30.10;99.90;;;;;;5033450;28;20389;-60
2023/09/08 11:47:42;;;;;;;17.65;5.75;;;30.10;99.90;;;;;;5029376;28;21349;-60
2023/09/08 11:50:11;;;;;;;12.88;5.40;;;29.90;99.90;;;;;;5030032;28;20052;-61
2023/09/08 11:52:39;;;;;;;19.60;5.65;;;29.80;99.90;;;;;;5029571;28;20013;-60
2023/09/08 11:55:06;;;;;;;14.20;5.22;;;29.90;99.90;;;;;;5031994;28;20028;-60
2023/09/08 11:57:32;;;;;;;12.48;5.57;;;30.00;99.90;;;;;;5029083;28;20043;-61
2023/09/08 12:00:05;;;;;;;17.65;6.70;;;30.00;99.90;;;;;;5032732;28;20071;-61
2023/09/08 12:02:36;;;;;;;19.17;6.72;;;29.90;99.90;;;;;;5029209;28;20022;-62
2023/09/08 12:05:04;;;;;;;17.25;6.55;;;29.80;99.90;;;;;;5029570;28;20096;-61
2023/09/08 12:07:30;;;;;;;25.42;6.32;;;29.80;99.90;;;;;;5027681;28;20096;-60
2023/09/08 12:09:58;;;;;;;20.65;11.95;;;29.90;99.90;;;;;;5029630;28;20100;-63
2023/09/08 12:12:26;;;;;;;38.40;24.05;;;29.80;99.90;;;;;;5031897;28;20436;-61
2023/09/08 12:14:53;;;;;;;50.80;37.80;;;29.80;99.90;;;;;;5033480;28;20014;-60
2023/09/08 12:17:24;;;;;;;32.97;18.25;;;29.60;99.90;;;;;;5032175;28;20028;-62
2023/09/08 12:19:51;;;;;;;20.83;8.95;;;29.60;99.90;;;;;;5030075;28;20113;-60
2023/09/08 12:22:21;;;;;;;20.73;6.55;;;29.50;99.90;;;;;;5026237;28;20033;-62
2023/09/08 12:24:49;;;;;;;20.73;5.85;;;29.50;99.90;;;;;;5029854;28;20439;-59
2023/09/08 12:27:17;;;;;;;11.25;5.03;;;29.50;99.90;;;;;;5026922;28;20478;-63
2023/09/08 12:29:56;;;;;;;20.08;6.10;;;29.50;99.90;;;;;;5027382;28;20060;-64
2023/09/08 12:32:24;;;;;;;18.73;5.82;;;29.50;99.90;;;;;;5029870;28;20559;-63
2023/09/08 12:34:52;;;;;;;25.52;7.10;;;29.50;99.90;;;;;;5030206;28;20017;-60
2023/09/08 12:37:27;;;;;;;19.83;6.53;;;29.40;99.90;;;;;;5031935;28;20083;-61
2023/09/08 12:39:53;;;;;;;19.27;6.57;;;29.40;99.90;;;;;;5032628;28;20028;-60